sensor_id;sensor_type;location;lat;lon;timestamp;P1;durP1;ratioP1;P2;durP2;ratioP2
73919;SDS011;62266;53.348;-1.496;2023-07-29T00:01:45;2.77;;;1.03;;
73919;SDS011;62266;53.348;-1.496;2023-07-29T00:04:29;1.83;;;1.15;;
73919;SDS011;62266;53.348;-1.496;2023-07-29T00:07:13;2.50;;;1.00;;
73919;SDS011;62266;53.348;-1.496;2023-07-29T00:09:57;2.70;;;1.00;;
73919;SDS011;62266;53.348;-1.496;2023-07-29T00:12:42;1.55;;;1.00;;
73919;SDS011;62266;53.348;-1.496;2023-07-29T00:15:27;2.37;;;1.07;;
73919;SDS011;62266;53.348;-1.496;2023-07-29T00:18:11;2.80;;;1.23;;
73919;SDS011;62266;53.348;-1.496;2023-07-29T00:20:55;2.92;;;1.42;;
73919;SDS011;62266;53.348;-1.496;2023-07-29T00:23:39;2.95;;;1.13;;
73919;SDS011;62266;53.348;-1.496;2023-07-29T00:26:24;4.25;;;1.23;;
73919;SDS011;62266;53.348;-1.496;2023-07-29T00:29:10;1.97;;;1.20;;
73919;SDS011;62266;53.348;-1.496;2023-07-29T00:31:54;2.60;;;1.10;;
73919;SDS011;62266;53.348;-1.496;2023-07-29T00:34:38;2.63;;;1.10;;
73919;SDS011;62266;53.348;-1.496;2023-07-29T00:37:22;1.75;;;1.10;;
73919;SDS011;62266;53.348;-1.496;2023-07-29T00:40:09;4.60;;;1.20;;
73919;SDS011;62266;53.348;-1.496;2023-07-29T00:42:57;1.40;;;0.87;;
73919;SDS011;62266;53.348;-1.496;2023-07-29T00:45:41;1.58;;;0.90;;
73919;SDS011;62266;53.348;-1.496;2023-07-29T00:48:27;2.50;;;1.20;;
73919;SDS011;62266;53.348;-1.496;2023-07-29T00:51:11;4.90;;;1.25;;
73919;SDS011;62266;53.348;-1.496;2023-07-29T00:53:55;4.10;;;1.38;;
73919;SDS011;62266;53.348;-1.496;2023-07-29T00:56:39;3.20;;;1.30;;
73919;SDS011;62266;53.348;-1.496;2023-07-29T00:59:24;2.92;;;1.35;;
73919;SDS011;62266;53.348;-1.496;2023-07-29T01:02:08;1.92;;;1.40;;
73919;SDS011;62266;53.348;-1.496;2023-07-29T01:04:56;3.42;;;1.38;;
73919;SDS011;62266;53.348;-1.496;2023-07-29T01:07:52;2.65;;;1.20;;
73919;SDS011;62266;53.348;-1.496;2023-07-29T01:10:53;2.83;;;1.50;;
73919;SDS011;62266;53.348;-1.496;2023-07-29T01:13:48;4.32;;;1.38;;
73919;SDS011;62266;53.348;-1.496;2023-07-29T01:16:41;3.88;;;1.40;;
73919;SDS011;62266;53.348;-1.496;2023-07-29T01:22:43;1.80;;;1.30;;
73919;SDS011;62266;53.348;-1.496;2023-07-29T01:25:28;3.90;;;1.40;;
73919;SDS011;62266;53.348;-1.496;2023-07-29T01:28:11;2.95;;;1.23;;
73919;SDS011;62266;53.348;-1.496;2023-07-29T01:31:00;2.05;;;1.08;;
73919;SDS011;62266;53.348;-1.496;2023-07-29T01:33:48;2.70;;;1.20;;
73919;SDS011;62266;53.348;-1.496;2023-07-29T01:36:57;1.80;;;1.20;;
73919;SDS011;62266;53.348;-1.496;2023-07-29T01:39:41;2.17;;;1.67;;
73919;SDS011;62266;53.348;-1.496;2023-07-29T01:42:27;3.95;;;1.50;;
73919;SDS011;62266;53.348;-1.496;2023-07-29T01:45:12;2.17;;;1.30;;
73919;SDS011;62266;53.348;-1.496;2023-07-29T01:47:57;1.85;;;1.13;;
73919;SDS011;62266;53.348;-1.496;2023-07-29T01:50:41;2.90;;;1.50;;
73919;SDS011;62266;53.348;-1.496;2023-07-29T01:53:25;1.80;;;1.20;;
73919;SDS011;62266;53.348;-1.496;2023-07-29T01:56:09;2.05;;;1.23;;
73919;SDS011;62266;53.348;-1.496;2023-07-29T01:58:53;3.17;;;1.27;;
73919;SDS011;62266;53.348;-1.496;2023-07-29T02:01:38;4.57;;;1.33;;
73919;SDS011;62266;53.348;-1.496;2023-07-29T02:04:22;3.00;;;1.63;;
73919;SDS011;62266;53.348;-1.496;2023-07-29T02:07:06;2.63;;;1.50;;
73919;SDS011;62266;53.348;-1.496;2023-07-29T02:09:50;3.35;;;1.40;;
73919;SDS011;62266;53.348;-1.496;2023-07-29T02:12:34;3.35;;;1.30;;
73919;SDS011;62266;53.348;-1.496;2023-07-29T02:15:18;4.43;;;1.35;;
73919;SDS011;62266;53.348;-1.496;2023-07-29T02:18:02;3.95;;;1.67;;
73919;SDS011;62266;53.348;-1.496;2023-07-29T02:20:47;3.20;;;1.20;;
73919;SDS011;62266;53.348;-1.496;2023-07-29T02:23:33;2.95;;;1.30;;
73919;SDS011;62266;53.348;-1.496;2023-07-29T02:26:17;2.38;;;1.30;;
73919;SDS011;62266;53.348;-1.496;2023-07-29T02:29:01;3.70;;;1.20;;
73919;SDS011;62266;53.348;-1.496;2023-07-29T02:31:45;2.55;;;1.33;;
73919;SDS011;62266;53.348;-1.496;2023-07-29T02:34:30;2.53;;;1.17;;
73919;SDS011;62266;53.348;-1.496;2023-07-29T02:37:14;4.10;;;1.25;;
73919;SDS011;62266;53.348;-1.496;2023-07-29T02:39:58;3.25;;;1.35;;
73919;SDS011;62266;53.348;-1.496;2023-07-29T02:42:44;3.88;;;1.60;;
73919;SDS011;62266;53.348;-1.496;2023-07-29T02:45:28;2.85;;;1.25;;
73919;SDS011;62266;53.348;-1.496;2023-07-29T02:48:12;3.07;;;1.17;;
73919;SDS011;62266;53.348;-1.496;2023-07-29T02:50:56;3.25;;;1.20;;
73919;SDS011;62266;53.348;-1.496;2023-07-29T02:53:40;2.88;;;1.00;;
73919;SDS011;62266;53.348;-1.496;2023-07-29T02:56:25;4.75;;;1.45;;
73919;SDS011;62266;53.348;-1.496;2023-07-29T02:59:09;5.53;;;1.73;;
73919;SDS011;62266;53.348;-1.496;2023-07-29T03:01:53;2.80;;;1.40;;
73919;SDS011;62266;53.348;-1.496;2023-07-29T03:04:37;3.28;;;1.67;;
73919;SDS011;62266;53.348;-1.496;2023-07-29T03:07:21;2.80;;;1.30;;
73919;SDS011;62266;53.348;-1.496;2023-07-29T03:10:05;5.32;;;1.30;;
73919;SDS011;62266;53.348;-1.496;2023-07-29T03:12:50;2.42;;;1.13;;
73919;SDS011;62266;53.348;-1.496;2023-07-29T03:15:34;2.50;;;1.17;;
73919;SDS011;62266;53.348;-1.496;2023-07-29T03:18:19;2.50;;;1.10;;
73919;SDS011;62266;53.348;-1.496;2023-07-29T03:21:03;2.85;;;1.30;;
73919;SDS011;62266;53.348;-1.496;2023-07-29T03:23:47;4.78;;;1.30;;
73919;SDS011;62266;53.348;-1.496;2023-07-29T03:26:31;5.93;;;1.40;;
73919;SDS011;62266;53.348;-1.496;2023-07-29T03:29:15;4.53;;;1.40;;
73919;SDS011;62266;53.348;-1.496;2023-07-29T03:31:59;3.17;;;1.80;;
73919;SDS011;62266;53.348;-1.496;2023-07-29T03:34:43;2.83;;;1.60;;
73919;SDS011;62266;53.348;-1.496;2023-07-29T03:37:27;2.92;;;1.48;;
73919;SDS011;62266;53.348;-1.496;2023-07-29T03:40:11;2.78;;;1.77;;
73919;SDS011;62266;53.348;-1.496;2023-07-29T03:42:56;2.77;;;1.63;;
73919;SDS011;62266;53.348;-1.496;2023-07-29T03:45:40;3.72;;;1.38;;
73919;SDS011;62266;53.348;-1.496;2023-07-29T03:48:24;4.65;;;1.40;;
73919;SDS011;62266;53.348;-1.496;2023-07-29T03:51:08;4.15;;;1.40;;
73919;SDS011;62266;53.348;-1.496;2023-07-29T03:53:52;4.55;;;1.30;;
73919;SDS011;62266;53.348;-1.496;2023-07-29T03:56:36;3.23;;;1.60;;
73919;SDS011;62266;53.348;-1.496;2023-07-29T03:59:20;4.50;;;1.33;;
73919;SDS011;62266;53.348;-1.496;2023-07-29T04:02:06;4.60;;;1.20;;
73919;SDS011;62266;53.348;-1.496;2023-07-29T04:04:50;3.97;;;1.50;;
73919;SDS011;62266;53.348;-1.496;2023-07-29T04:07:35;3.53;;;1.70;;
73919;SDS011;62266;53.348;-1.496;2023-07-29T04:10:19;4.67;;;1.20;;
73919;SDS011;62266;53.348;-1.496;2023-07-29T04:13:04;3.08;;;1.52;;
73919;SDS011;62266;53.348;-1.496;2023-07-29T04:15:48;5.20;;;2.00;;
73919;SDS011;62266;53.348;-1.496;2023-07-29T04:18:32;4.55;;;1.90;;
73919;SDS011;62266;53.348;-1.496;2023-07-29T04:21:17;7.82;;;2.10;;
73919;SDS011;62266;53.348;-1.496;2023-07-29T04:24:01;5.03;;;1.63;;
73919;SDS011;62266;53.348;-1.496;2023-07-29T04:26:46;5.15;;;1.73;;
73919;SDS011;62266;53.348;-1.496;2023-07-29T04:29:30;4.95;;;1.85;;
73919;SDS011;62266;53.348;-1.496;2023-07-29T04:32:14;4.85;;;1.65;;
73919;SDS011;62266;53.348;-1.496;2023-07-29T04:34:58;3.65;;;1.73;;
73919;SDS011;62266;53.348;-1.496;2023-07-29T04:37:42;3.17;;;1.10;;
73919;SDS011;62266;53.348;-1.496;2023-07-29T04:40:26;3.92;;;1.40;;
73919;SDS011;62266;53.348;-1.496;2023-07-29T04:43:11;3.75;;;1.50;;
73919;SDS011;62266;53.348;-1.496;2023-07-29T04:45:55;6.10;;;1.58;;
73919;SDS011;62266;53.348;-1.496;2023-07-29T04:48:39;9.13;;;1.63;;
73919;SDS011;62266;53.348;-1.496;2023-07-29T04:51:23;3.40;;;1.27;;
73919;SDS011;62266;53.348;-1.496;2023-07-29T04:54:08;4.38;;;2.00;;
73919;SDS011;62266;53.348;-1.496;2023-07-29T04:56:52;3.53;;;1.33;;
73919;SDS011;62266;53.348;-1.496;2023-07-29T04:59:36;5.68;;;1.70;;
73919;SDS011;62266;53.348;-1.496;2023-07-29T05:02:21;8.60;;;2.05;;
73919;SDS011;62266;53.348;-1.496;2023-07-29T05:05:05;3.80;;;1.50;;
73919;SDS011;62266;53.348;-1.496;2023-07-29T05:07:50;5.43;;;1.38;;
73919;SDS011;62266;53.348;-1.496;2023-07-29T05:10:34;6.57;;;1.83;;
73919;SDS011;62266;53.348;-1.496;2023-07-29T05:13:19;6.22;;;1.58;;
73919;SDS011;62266;53.348;-1.496;2023-07-29T05:16:03;6.05;;;1.95;;
73919;SDS011;62266;53.348;-1.496;2023-07-29T05:18:47;6.47;;;2.17;;
73919;SDS011;62266;53.348;-1.496;2023-07-29T05:21:31;6.47;;;2.00;;
73919;SDS011;62266;53.348;-1.496;2023-07-29T05:24:16;5.15;;;1.40;;
73919;SDS011;62266;53.348;-1.496;2023-07-29T05:27:00;6.72;;;1.80;;
73919;SDS011;62266;53.348;-1.496;2023-07-29T05:29:44;7.88;;;1.95;;
73919;SDS011;62266;53.348;-1.496;2023-07-29T05:32:28;4.90;;;1.77;;
73919;SDS011;62266;53.348;-1.496;2023-07-29T05:35:13;4.68;;;1.90;;
73919;SDS011;62266;53.348;-1.496;2023-07-29T05:37:58;7.45;;;1.90;;
73919;SDS011;62266;53.348;-1.496;2023-07-29T05:40:42;6.15;;;1.98;;
73919;SDS011;62266;53.348;-1.496;2023-07-29T05:43:26;7.00;;;2.72;;
73919;SDS011;62266;53.348;-1.496;2023-07-29T05:46:10;6.07;;;2.00;;
73919;SDS011;62266;53.348;-1.496;2023-07-29T05:48:54;6.50;;;1.85;;
73919;SDS011;62266;53.348;-1.496;2023-07-29T05:51:39;5.35;;;1.80;;
73919;SDS011;62266;53.348;-1.496;2023-07-29T05:54:23;5.15;;;1.85;;
73919;SDS011;62266;53.348;-1.496;2023-07-29T05:57:07;6.78;;;1.80;;
73919;SDS011;62266;53.348;-1.496;2023-07-29T05:59:51;8.33;;;2.50;;
73919;SDS011;62266;53.348;-1.496;2023-07-29T06:02:35;4.32;;;1.88;;
73919;SDS011;62266;53.348;-1.496;2023-07-29T06:05:19;7.97;;;2.10;;
73919;SDS011;62266;53.348;-1.496;2023-07-29T06:08:03;5.85;;;1.90;;
73919;SDS011;62266;53.348;-1.496;2023-07-29T06:10:47;7.68;;;2.10;;
73919;SDS011;62266;53.348;-1.496;2023-07-29T06:13:32;7.73;;;1.90;;
73919;SDS011;62266;53.348;-1.496;2023-07-29T06:16:16;6.72;;;1.90;;
73919;SDS011;62266;53.348;-1.496;2023-07-29T06:19:01;5.32;;;1.83;;
73919;SDS011;62266;53.348;-1.496;2023-07-29T06:21:45;3.97;;;1.70;;
73919;SDS011;62266;53.348;-1.496;2023-07-29T06:24:30;4.40;;;1.80;;
73919;SDS011;62266;53.348;-1.496;2023-07-29T06:27:14;4.53;;;1.50;;
73919;SDS011;62266;53.348;-1.496;2023-07-29T06:29:58;4.20;;;1.63;;
73919;SDS011;62266;53.348;-1.496;2023-07-29T06:32:45;6.05;;;1.70;;
73919;SDS011;62266;53.348;-1.496;2023-07-29T06:35:31;3.72;;;1.60;;
73919;SDS011;62266;53.348;-1.496;2023-07-29T06:38:16;5.43;;;1.98;;
73919;SDS011;62266;53.348;-1.496;2023-07-29T06:41:05;4.80;;;1.60;;
73919;SDS011;62266;53.348;-1.496;2023-07-29T06:43:49;5.85;;;1.73;;
73919;SDS011;62266;53.348;-1.496;2023-07-29T06:46:33;7.25;;;1.60;;
73919;SDS011;62266;53.348;-1.496;2023-07-29T06:49:17;5.82;;;1.58;;
73919;SDS011;62266;53.348;-1.496;2023-07-29T06:52:02;3.30;;;1.52;;
73919;SDS011;62266;53.348;-1.496;2023-07-29T06:54:52;4.00;;;1.30;;
73919;SDS011;62266;53.348;-1.496;2023-07-29T06:57:37;3.38;;;1.33;;
73919;SDS011;62266;53.348;-1.496;2023-07-29T07:00:22;4.55;;;1.38;;
73919;SDS011;62266;53.348;-1.496;2023-07-29T07:03:07;4.18;;;1.73;;
73919;SDS011;62266;53.348;-1.496;2023-07-29T07:05:52;5.78;;;1.58;;
73919;SDS011;62266;53.348;-1.496;2023-07-29T07:08:37;4.73;;;1.60;;
73919;SDS011;62266;53.348;-1.496;2023-07-29T07:11:21;7.30;;;1.60;;
73919;SDS011;62266;53.348;-1.496;2023-07-29T07:14:05;8.40;;;1.80;;
73919;SDS011;62266;53.348;-1.496;2023-07-29T07:16:49;6.20;;;1.50;;
73919;SDS011;62266;53.348;-1.496;2023-07-29T07:22:07;8.70;;;1.57;;
73919;SDS011;62266;53.348;-1.496;2023-07-29T07:24:52;5.47;;;1.38;;
73919;SDS011;62266;53.348;-1.496;2023-07-29T07:27:36;5.03;;;1.45;;
73919;SDS011;62266;53.348;-1.496;2023-07-29T07:30:22;4.25;;;1.48;;
73919;SDS011;62266;53.348;-1.496;2023-07-29T07:33:06;2.90;;;1.30;;
73919;SDS011;62266;53.348;-1.496;2023-07-29T07:35:51;5.40;;;1.40;;
73919;SDS011;62266;53.348;-1.496;2023-07-29T07:38:35;5.38;;;1.30;;
73919;SDS011;62266;53.348;-1.496;2023-07-29T07:41:20;4.65;;;1.60;;
73919;SDS011;62266;53.348;-1.496;2023-07-29T07:44:04;3.72;;;1.35;;
73919;SDS011;62266;53.348;-1.496;2023-07-29T07:46:48;4.60;;;1.70;;
73919;SDS011;62266;53.348;-1.496;2023-07-29T07:49:34;3.87;;;1.47;;
73919;SDS011;62266;53.348;-1.496;2023-07-29T07:52:18;4.65;;;1.70;;
73919;SDS011;62266;53.348;-1.496;2023-07-29T07:55:02;4.90;;;1.35;;
73919;SDS011;62266;53.348;-1.496;2023-07-29T07:57:46;3.88;;;1.50;;
73919;SDS011;62266;53.348;-1.496;2023-07-29T08:00:30;4.55;;;1.58;;
73919;SDS011;62266;53.348;-1.496;2023-07-29T08:03:15;5.00;;;1.37;;
73919;SDS011;62266;53.348;-1.496;2023-07-29T08:06:02;4.28;;;1.45;;
73919;SDS011;62266;53.348;-1.496;2023-07-29T08:08:50;4.22;;;1.92;;
73919;SDS011;62266;53.348;-1.496;2023-07-29T08:11:34;4.85;;;1.15;;
73919;SDS011;62266;53.348;-1.496;2023-07-29T08:14:18;4.93;;;1.27;;
73919;SDS011;62266;53.348;-1.496;2023-07-29T08:17:02;3.07;;;1.30;;
73919;SDS011;62266;53.348;-1.496;2023-07-29T08:19:47;5.72;;;1.40;;
73919;SDS011;62266;53.348;-1.496;2023-07-29T08:22:31;5.47;;;1.35;;
73919;SDS011;62266;53.348;-1.496;2023-07-29T08:25:15;2.78;;;1.27;;
73919;SDS011;62266;53.348;-1.496;2023-07-29T08:28:00;3.67;;;1.13;;
73919;SDS011;62266;53.348;-1.496;2023-07-29T08:30:47;1.67;;;0.90;;
73919;SDS011;62266;53.348;-1.496;2023-07-29T08:33:32;6.85;;;1.20;;
73919;SDS011;62266;53.348;-1.496;2023-07-29T08:36:19;3.80;;;1.40;;
73919;SDS011;62266;53.348;-1.496;2023-07-29T08:39:03;3.15;;;0.95;;
73919;SDS011;62266;53.348;-1.496;2023-07-29T08:41:54;2.78;;;1.05;;
73919;SDS011;62266;53.348;-1.496;2023-07-29T08:44:42;4.13;;;1.20;;
73919;SDS011;62266;53.348;-1.496;2023-07-29T08:47:26;3.47;;;1.20;;
73919;SDS011;62266;53.348;-1.496;2023-07-29T08:50:10;3.03;;;1.00;;
73919;SDS011;62266;53.348;-1.496;2023-07-29T08:52:55;1.98;;;0.73;;
73919;SDS011;62266;53.348;-1.496;2023-07-29T08:58:31;2.17;;;1.00;;
73919;SDS011;62266;53.348;-1.496;2023-07-29T09:01:15;3.58;;;1.00;;
73919;SDS011;62266;53.348;-1.496;2023-07-29T09:04:00;4.30;;;1.00;;
73919;SDS011;62266;53.348;-1.496;2023-07-29T09:06:44;3.75;;;0.85;;
73919;SDS011;62266;53.348;-1.496;2023-07-29T09:09:32;3.85;;;0.90;;
73919;SDS011;62266;53.348;-1.496;2023-07-29T09:12:19;3.17;;;0.70;;
73919;SDS011;62266;53.348;-1.496;2023-07-29T09:15:04;3.58;;;1.08;;
73919;SDS011;62266;53.348;-1.496;2023-07-29T09:17:51;3.92;;;1.40;;
73919;SDS011;62266;53.348;-1.496;2023-07-29T09:20:36;3.53;;;0.75;;
73919;SDS011;62266;53.348;-1.496;2023-07-29T09:23:20;3.70;;;0.82;;
73919;SDS011;62266;53.348;-1.496;2023-07-29T09:26:04;2.60;;;0.57;;
73919;SDS011;62266;53.348;-1.496;2023-07-29T09:28:56;2.90;;;0.50;;
73919;SDS011;62266;53.348;-1.496;2023-07-29T09:31:40;2.92;;;0.80;;
73919;SDS011;62266;53.348;-1.496;2023-07-29T09:34:25;1.80;;;0.63;;
73919;SDS011;62266;53.348;-1.496;2023-07-29T09:40:05;4.33;;;0.90;;
73919;SDS011;62266;53.348;-1.496;2023-07-29T09:42:51;4.18;;;0.82;;
73919;SDS011;62266;53.348;-1.496;2023-07-29T09:45:36;1.40;;;0.65;;
73919;SDS011;62266;53.348;-1.496;2023-07-29T09:48:24;4.43;;;1.17;;
73919;SDS011;62266;53.348;-1.496;2023-07-29T09:51:12;2.35;;;0.60;;
73919;SDS011;62266;53.348;-1.496;2023-07-29T09:53:57;2.57;;;0.80;;
73919;SDS011;62266;53.348;-1.496;2023-07-29T09:56:43;1.70;;;0.63;;
73919;SDS011;62266;53.348;-1.496;2023-07-29T09:59:28;2.20;;;0.70;;
73919;SDS011;62266;53.348;-1.496;2023-07-29T10:02:26;5.18;;;1.00;;
73919;SDS011;62266;53.348;-1.496;2023-07-29T10:05:20;4.53;;;0.73;;
73919;SDS011;62266;53.348;-1.496;2023-07-29T10:08:06;2.77;;;0.90;;
73919;SDS011;62266;53.348;-1.496;2023-07-29T10:10:53;3.13;;;0.90;;
73919;SDS011;62266;53.348;-1.496;2023-07-29T10:13:38;3.28;;;0.75;;
73919;SDS011;62266;53.348;-1.496;2023-07-29T10:16:28;4.47;;;0.90;;
73919;SDS011;62266;53.348;-1.496;2023-07-29T10:19:13;3.85;;;0.95;;
73919;SDS011;62266;53.348;-1.496;2023-07-29T10:21:59;2.37;;;0.40;;
73919;SDS011;62266;53.348;-1.496;2023-07-29T10:24:45;3.28;;;0.60;;
73919;SDS011;62266;53.348;-1.496;2023-07-29T10:27:29;4.07;;;0.50;;
73919;SDS011;62266;53.348;-1.496;2023-07-29T10:30:15;5.13;;;0.70;;
73919;SDS011;62266;53.348;-1.496;2023-07-29T10:33:03;6.38;;;0.80;;
73919;SDS011;62266;53.348;-1.496;2023-07-29T10:35:49;4.63;;;0.63;;
73919;SDS011;62266;53.348;-1.496;2023-07-29T10:38:33;2.45;;;0.68;;
73919;SDS011;62266;53.348;-1.496;2023-07-29T10:41:17;3.47;;;0.60;;
73919;SDS011;62266;53.348;-1.496;2023-07-29T10:44:02;3.33;;;0.70;;
73919;SDS011;62266;53.348;-1.496;2023-07-29T10:46:46;2.03;;;0.50;;
73919;SDS011;62266;53.348;-1.496;2023-07-29T10:49:30;3.80;;;0.60;;
73919;SDS011;62266;53.348;-1.496;2023-07-29T10:52:29;1.58;;;0.35;;
73919;SDS011;62266;53.348;-1.496;2023-07-29T10:55:34;2.58;;;0.50;;
73919;SDS011;62266;53.348;-1.496;2023-07-29T10:58:21;1.30;;;0.50;;
73919;SDS011;62266;53.348;-1.496;2023-07-29T11:10:02;2.20;;;0.52;;
73919;SDS011;62266;53.348;-1.496;2023-07-29T11:12:51;3.10;;;0.70;;
73919;SDS011;62266;53.348;-1.496;2023-07-29T11:15:41;3.95;;;0.75;;
73919;SDS011;62266;53.348;-1.496;2023-07-29T11:18:26;3.27;;;0.73;;
73919;SDS011;62266;53.348;-1.496;2023-07-29T11:21:15;3.85;;;0.70;;
73919;SDS011;62266;53.348;-1.496;2023-07-29T11:23:59;2.65;;;0.70;;
73919;SDS011;62266;53.348;-1.496;2023-07-29T11:26:46;5.22;;;1.10;;
73919;SDS011;62266;53.348;-1.496;2023-07-29T11:29:31;5.20;;;0.80;;
73919;SDS011;62266;53.348;-1.496;2023-07-29T11:32:15;2.87;;;0.80;;
73919;SDS011;62266;53.348;-1.496;2023-07-29T11:35:04;4.30;;;1.10;;
73919;SDS011;62266;53.348;-1.496;2023-07-29T11:37:50;6.35;;;0.80;;
73919;SDS011;62266;53.348;-1.496;2023-07-29T11:40:35;5.38;;;0.63;;
73919;SDS011;62266;53.348;-1.496;2023-07-29T11:43:22;3.55;;;0.73;;
73919;SDS011;62266;53.348;-1.496;2023-07-29T11:46:06;5.17;;;1.00;;
73919;SDS011;62266;53.348;-1.496;2023-07-29T11:48:53;3.53;;;0.82;;
73919;SDS011;62266;53.348;-1.496;2023-07-29T11:51:38;6.47;;;1.40;;
73919;SDS011;62266;53.348;-1.496;2023-07-29T11:54:22;5.25;;;1.20;;
73919;SDS011;62266;53.348;-1.496;2023-07-29T11:57:07;3.63;;;0.60;;
73919;SDS011;62266;53.348;-1.496;2023-07-29T11:59:52;4.67;;;1.10;;
73919;SDS011;62266;53.348;-1.496;2023-07-29T12:02:38;3.72;;;0.75;;
73919;SDS011;62266;53.348;-1.496;2023-07-29T12:05:24;5.25;;;1.20;;
73919;SDS011;62266;53.348;-1.496;2023-07-29T12:08:08;5.30;;;1.13;;
73919;SDS011;62266;53.348;-1.496;2023-07-29T12:10:53;3.40;;;1.05;;
73919;SDS011;62266;53.348;-1.496;2023-07-29T12:13:37;4.70;;;0.73;;
73919;SDS011;62266;53.348;-1.496;2023-07-29T12:16:22;3.03;;;0.52;;
73919;SDS011;62266;53.348;-1.496;2023-07-29T12:19:06;4.68;;;0.80;;
73919;SDS011;62266;53.348;-1.496;2023-07-29T12:21:49;4.75;;;1.15;;
73919;SDS011;62266;53.348;-1.496;2023-07-29T12:24:37;5.25;;;1.40;;
73919;SDS011;62266;53.348;-1.496;2023-07-29T12:27:25;6.70;;;0.87;;
73919;SDS011;62266;53.348;-1.496;2023-07-29T12:30:09;5.63;;;1.30;;
73919;SDS011;62266;53.348;-1.496;2023-07-29T12:32:54;5.78;;;1.50;;
73919;SDS011;62266;53.348;-1.496;2023-07-29T12:35:38;3.58;;;0.93;;
73919;SDS011;62266;53.348;-1.496;2023-07-29T12:38:23;7.68;;;1.00;;
73919;SDS011;62266;53.348;-1.496;2023-07-29T12:41:09;5.40;;;0.97;;
73919;SDS011;62266;53.348;-1.496;2023-07-29T12:43:56;3.22;;;0.70;;
73919;SDS011;62266;53.348;-1.496;2023-07-29T12:46:40;4.07;;;0.55;;
73919;SDS011;62266;53.348;-1.496;2023-07-29T12:49:25;4.40;;;0.80;;
73919;SDS011;62266;53.348;-1.496;2023-07-29T12:52:16;2.25;;;0.85;;
73919;SDS011;62266;53.348;-1.496;2023-07-29T12:54:59;4.93;;;0.80;;
73919;SDS011;62266;53.348;-1.496;2023-07-29T12:57:44;2.80;;;0.68;;
73919;SDS011;62266;53.348;-1.496;2023-07-29T13:00:28;4.50;;;0.95;;
73919;SDS011;62266;53.348;-1.496;2023-07-29T13:03:15;3.92;;;0.77;;
73919;SDS011;62266;53.348;-1.496;2023-07-29T13:05:59;2.65;;;0.82;;
73919;SDS011;62266;53.348;-1.496;2023-07-29T13:08:43;3.63;;;0.90;;
73919;SDS011;62266;53.348;-1.496;2023-07-29T13:11:28;3.63;;;0.82;;
73919;SDS011;62266;53.348;-1.496;2023-07-29T13:14:21;4.20;;;1.35;;
73919;SDS011;62266;53.348;-1.496;2023-07-29T13:17:05;3.45;;;1.20;;
73919;SDS011;62266;53.348;-1.496;2023-07-29T13:19:49;4.38;;;1.00;;
73919;SDS011;62266;53.348;-1.496;2023-07-29T13:22:34;3.37;;;0.93;;
73919;SDS011;62266;53.348;-1.496;2023-07-29T13:25:18;3.35;;;0.98;;
73919;SDS011;62266;53.348;-1.496;2023-07-29T13:28:02;3.45;;;1.00;;
73919;SDS011;62266;53.348;-1.496;2023-07-29T13:30:46;3.83;;;1.00;;
73919;SDS011;62266;53.348;-1.496;2023-07-29T13:33:33;2.85;;;0.95;;
73919;SDS011;62266;53.348;-1.496;2023-07-29T13:36:18;2.63;;;0.90;;
73919;SDS011;62266;53.348;-1.496;2023-07-29T13:39:02;3.60;;;0.68;;
73919;SDS011;62266;53.348;-1.496;2023-07-29T13:41:49;11.00;;;1.45;;
73919;SDS011;62266;53.348;-1.496;2023-07-29T13:44:33;3.17;;;1.00;;
73919;SDS011;62266;53.348;-1.496;2023-07-29T13:47:17;2.83;;;0.60;;
73919;SDS011;62266;53.348;-1.496;2023-07-29T13:50:01;2.80;;;0.60;;
73919;SDS011;62266;53.348;-1.496;2023-07-29T13:52:47;3.80;;;0.60;;
73919;SDS011;62266;53.348;-1.496;2023-07-29T13:55:38;2.25;;;0.38;;
73919;SDS011;62266;53.348;-1.496;2023-07-29T13:58:22;4.78;;;0.82;;
73919;SDS011;62266;53.348;-1.496;2023-07-29T14:01:06;2.80;;;0.57;;
73919;SDS011;62266;53.348;-1.496;2023-07-29T14:04:11;4.40;;;0.53;;
73919;SDS011;62266;53.348;-1.496;2023-07-29T14:06:55;3.03;;;0.70;;
73919;SDS011;62266;53.348;-1.496;2023-07-29T14:09:39;4.65;;;0.77;;
73919;SDS011;62266;53.348;-1.496;2023-07-29T14:12:24;2.72;;;0.88;;
73919;SDS011;62266;53.348;-1.496;2023-07-29T14:15:08;2.30;;;0.47;;
73919;SDS011;62266;53.348;-1.496;2023-07-29T14:17:53;3.50;;;0.67;;
73919;SDS011;62266;53.348;-1.496;2023-07-29T14:20:37;2.67;;;0.70;;
73919;SDS011;62266;53.348;-1.496;2023-07-29T14:23:21;2.75;;;0.70;;
73919;SDS011;62266;53.348;-1.496;2023-07-29T14:26:05;3.05;;;0.68;;
73919;SDS011;62266;53.348;-1.496;2023-07-29T14:28:50;1.95;;;0.52;;
73919;SDS011;62266;53.348;-1.496;2023-07-29T14:31:34;2.47;;;0.80;;
73919;SDS011;62266;53.348;-1.496;2023-07-29T14:34:21;3.28;;;1.00;;
73919;SDS011;62266;53.348;-1.496;2023-07-29T14:37:05;4.70;;;1.02;;
73919;SDS011;62266;53.348;-1.496;2023-07-29T14:39:50;3.90;;;0.90;;
73919;SDS011;62266;53.348;-1.496;2023-07-29T14:42:35;2.92;;;0.70;;
73919;SDS011;62266;53.348;-1.496;2023-07-29T14:45:19;2.50;;;0.40;;
73919;SDS011;62266;53.348;-1.496;2023-07-29T14:48:06;2.17;;;0.77;;
73919;SDS011;62266;53.348;-1.496;2023-07-29T14:50:56;1.95;;;0.70;;
73919;SDS011;62266;53.348;-1.496;2023-07-29T14:53:40;1.77;;;0.50;;
73919;SDS011;62266;53.348;-1.496;2023-07-29T14:56:27;2.35;;;0.80;;
73919;SDS011;62266;53.348;-1.496;2023-07-29T14:59:12;1.60;;;0.50;;
73919;SDS011;62266;53.348;-1.496;2023-07-29T15:01:56;4.85;;;1.60;;
73919;SDS011;62266;53.348;-1.496;2023-07-29T15:04:40;2.58;;;0.60;;
73919;SDS011;62266;53.348;-1.496;2023-07-29T15:07:27;2.95;;;0.60;;
73919;SDS011;62266;53.348;-1.496;2023-07-29T15:10:18;1.83;;;0.50;;
73919;SDS011;62266;53.348;-1.496;2023-07-29T15:13:05;2.60;;;0.40;;
73919;SDS011;62266;53.348;-1.496;2023-07-29T15:15:49;2.25;;;0.50;;
73919;SDS011;62266;53.348;-1.496;2023-07-29T15:18:57;1.75;;;0.47;;
73919;SDS011;62266;53.348;-1.496;2023-07-29T15:21:42;2.28;;;0.28;;
73919;SDS011;62266;53.348;-1.496;2023-07-29T15:24:27;3.47;;;0.90;;
73919;SDS011;62266;53.348;-1.496;2023-07-29T15:27:11;3.93;;;0.90;;
73919;SDS011;62266;53.348;-1.496;2023-07-29T15:29:55;1.88;;;0.52;;
73919;SDS011;62266;53.348;-1.496;2023-07-29T15:32:42;3.53;;;0.47;;
73919;SDS011;62266;53.348;-1.496;2023-07-29T15:35:26;2.97;;;0.25;;
73919;SDS011;62266;53.348;-1.496;2023-07-29T15:38:10;2.28;;;0.40;;
73919;SDS011;62266;53.348;-1.496;2023-07-29T15:40:53;3.33;;;0.63;;
73919;SDS011;62266;53.348;-1.496;2023-07-29T15:43:38;1.50;;;0.50;;
73919;SDS011;62266;53.348;-1.496;2023-07-29T15:46:22;1.48;;;0.52;;
73919;SDS011;62266;53.348;-1.496;2023-07-29T15:49:10;2.85;;;0.50;;
73919;SDS011;62266;53.348;-1.496;2023-07-29T15:51:54;2.97;;;0.52;;
73919;SDS011;62266;53.348;-1.496;2023-07-29T15:54:39;3.07;;;0.60;;
73919;SDS011;62266;53.348;-1.496;2023-07-29T15:57:24;1.92;;;0.65;;
73919;SDS011;62266;53.348;-1.496;2023-07-29T16:00:08;1.85;;;0.38;;
73919;SDS011;62266;53.348;-1.496;2023-07-29T16:02:53;4.30;;;0.88;;
73919;SDS011;62266;53.348;-1.496;2023-07-29T16:05:37;2.88;;;0.70;;
73919;SDS011;62266;53.348;-1.496;2023-07-29T16:08:22;2.50;;;0.50;;
73919;SDS011;62266;53.348;-1.496;2023-07-29T16:11:06;3.70;;;0.50;;
73919;SDS011;62266;53.348;-1.496;2023-07-29T16:13:50;1.55;;;0.50;;
73919;SDS011;62266;53.348;-1.496;2023-07-29T16:16:34;1.90;;;0.40;;
73919;SDS011;62266;53.348;-1.496;2023-07-29T16:19:25;2.33;;;0.50;;
73919;SDS011;62266;53.348;-1.496;2023-07-29T16:22:11;1.50;;;0.40;;
73919;SDS011;62266;53.348;-1.496;2023-07-29T16:24:55;1.60;;;0.43;;
73919;SDS011;62266;53.348;-1.496;2023-07-29T16:27:39;2.40;;;0.50;;
73919;SDS011;62266;53.348;-1.496;2023-07-29T16:30:24;1.92;;;0.35;;
73919;SDS011;62266;53.348;-1.496;2023-07-29T16:33:08;2.67;;;0.50;;
73919;SDS011;62266;53.348;-1.496;2023-07-29T16:35:54;1.23;;;0.60;;
73919;SDS011;62266;53.348;-1.496;2023-07-29T16:38:39;2.88;;;0.43;;
73919;SDS011;62266;53.348;-1.496;2023-07-29T16:41:26;2.42;;;0.73;;